Página principal
METAR-TAF:

METAR-TAF

Aeroportos :

Funchal, Madeira, Portugal

Aeroporto da Madeira

latitude: 32-41-52N, longitude: 016-46-28W, altura: 59 m

Observação actual do tempo

O boletim foi feito há 26 minutos, às 22:00 UTC
Vento 6 kt com direcção variável com rajadas de 21 kt
Temperatura 16°C
Humidade 68%
Pressão 1024 hPa
Visibilidade 10 km ou mais
Nuvens dispersasa uma altura de 1500 ft

METAR: LPMA 172200Z VRB06G21KT 9999 SCT015 16/10 Q1024

Hora: 22:26 (22:26 UTC)

Previsão

O boletim foi feito há 5 horas e 26 minutos, às 17:00 UTC
Previsão válida de 17 às 18 UTC a 18 às 18 UTC
Vento 18 kt de norte
Visibilidade 10 km ou mais
Nuvens dispersasa uma altura de 1500 ft
Temporariamente
de 17 às 18 UTC a 18 às 18 UTC
Vento 23 kt de norte com rajadas de 35 kt
Nuvens dispersasa uma altura de 1500 ft
Nuvens fragmentadasa uma altura de 3000 ft

TAF: LPMA 171700Z 1718/1818 36018KT 9999 SCT015 TEMPO 1718/1818 36023G35KT SCT015 BKN030

Observações e previsões do tempo de mais de 4000 aeroportos (mensagens METAR e TAF).

As estações disponíveis são os pontos amarelos e vermelhos sobre o mapa.

Mova o rato sobre o mapa para ver o nome da estação.

Depois clique no ponto para visualizar as observações e previsões meteorológicas.

Para alterar o mapa : clique nos botões verdes com uma cruz preta para aumentar o zoom; no botão verde com uma pitada de zoom; ou nas setas verdes para mapas adjacentes.


METAR-TAF: